sensor_id;sensor_type;location;lat;lon;timestamp;P1;durP1;ratioP1;P2;durP2;ratioP2
18411;SDS011;27097;51.738;19.472;2023-06-22T00:01:12;19.05;;;14.43;;
18411;SDS011;27097;51.738;19.472;2023-06-22T00:03:38;18.98;;;13.82;;
18411;SDS011;27097;51.738;19.472;2023-06-22T00:06:08;17.65;;;13.43;;
18411;SDS011;27097;51.738;19.472;2023-06-22T00:08:35;18.33;;;13.13;;
18411;SDS011;27097;51.738;19.472;2023-06-22T00:11:03;18.42;;;13.57;;
18411;SDS011;27097;51.738;19.472;2023-06-22T00:13:30;17.88;;;13.02;;
18411;SDS011;27097;51.738;19.472;2023-06-22T00:15:57;17.75;;;13.02;;
18411;SDS011;27097;51.738;19.472;2023-06-22T00:18:24;22.40;;;12.82;;
18411;SDS011;27097;51.738;19.472;2023-06-22T00:20:53;23.38;;;12.75;;
18411;SDS011;27097;51.738;19.472;2023-06-22T00:23:22;19.60;;;13.13;;
18411;SDS011;27097;51.738;19.472;2023-06-22T00:25:50;20.95;;;14.20;;
18411;SDS011;27097;51.738;19.472;2023-06-22T00:28:19;25.88;;;17.45;;
18411;SDS011;27097;51.738;19.472;2023-06-22T00:30:46;28.45;;;18.60;;
18411;SDS011;27097;51.738;19.472;2023-06-22T00:33:13;25.48;;;17.77;;
18411;SDS011;27097;51.738;19.472;2023-06-22T00:35:41;22.48;;;17.35;;
18411;SDS011;27097;51.738;19.472;2023-06-22T00:38:07;24.20;;;17.85;;
18411;SDS011;27097;51.738;19.472;2023-06-22T00:40:34;26.13;;;17.70;;
18411;SDS011;27097;51.738;19.472;2023-06-22T00:43:02;30.38;;;18.48;;
18411;SDS011;27097;51.738;19.472;2023-06-22T00:45:31;26.60;;;18.75;;
18411;SDS011;27097;51.738;19.472;2023-06-22T00:47:58;25.48;;;18.35;;
18411;SDS011;27097;51.738;19.472;2023-06-22T00:50:26;28.17;;;19.05;;
18411;SDS011;27097;51.738;19.472;2023-06-22T00:52:58;27.02;;;17.50;;
18411;SDS011;27097;51.738;19.472;2023-06-22T00:55:27;28.10;;;18.65;;
18411;SDS011;27097;51.738;19.472;2023-06-22T00:57:55;27.25;;;18.15;;
18411;SDS011;27097;51.738;19.472;2023-06-22T01:00:22;25.90;;;18.67;;
18411;SDS011;27097;51.738;19.472;2023-06-22T01:02:52;26.08;;;18.80;;
18411;SDS011;27097;51.738;19.472;2023-06-22T01:05:19;26.25;;;18.75;;
18411;SDS011;27097;51.738;19.472;2023-06-22T01:07:52;27.65;;;19.10;;
18411;SDS011;27097;51.738;19.472;2023-06-22T01:10:28;26.00;;;19.17;;
18411;SDS011;27097;51.738;19.472;2023-06-22T01:13:02;26.63;;;19.42;;
18411;SDS011;27097;51.738;19.472;2023-06-22T01:15:35;32.47;;;19.33;;
18411;SDS011;27097;51.738;19.472;2023-06-22T01:18:12;26.95;;;19.35;;
18411;SDS011;27097;51.738;19.472;2023-06-22T01:20:40;26.92;;;19.67;;
18411;SDS011;27097;51.738;19.472;2023-06-22T01:23:09;27.58;;;19.08;;
18411;SDS011;27097;51.738;19.472;2023-06-22T01:25:45;29.05;;;19.85;;
18411;SDS011;27097;51.738;19.472;2023-06-22T01:28:20;27.85;;;19.80;;
18411;SDS011;27097;51.738;19.472;2023-06-22T01:30:52;29.85;;;19.83;;
18411;SDS011;27097;51.738;19.472;2023-06-22T01:33:28;28.70;;;19.88;;
18411;SDS011;27097;51.738;19.472;2023-06-22T01:35:57;29.13;;;19.50;;
18411;SDS011;27097;51.738;19.472;2023-06-22T01:38:25;27.75;;;18.90;;
18411;SDS011;27097;51.738;19.472;2023-06-22T01:40:54;28.35;;;18.90;;
18411;SDS011;27097;51.738;19.472;2023-06-22T01:43:23;25.05;;;18.30;;
18411;SDS011;27097;51.738;19.472;2023-06-22T01:45:52;24.40;;;17.70;;
18411;SDS011;27097;51.738;19.472;2023-06-22T01:48:20;24.50;;;18.17;;
18411;SDS011;27097;51.738;19.472;2023-06-22T01:50:47;23.83;;;17.60;;
18411;SDS011;27097;51.738;19.472;2023-06-22T01:53:14;24.85;;;17.85;;
18411;SDS011;27097;51.738;19.472;2023-06-22T01:55:41;26.73;;;17.27;;
18411;SDS011;27097;51.738;19.472;2023-06-22T01:58:08;22.30;;;16.77;;
18411;SDS011;27097;51.738;19.472;2023-06-22T02:00:36;24.30;;;16.90;;
18411;SDS011;27097;51.738;19.472;2023-06-22T02:03:08;26.60;;;16.90;;
18411;SDS011;27097;51.738;19.472;2023-06-22T02:05:43;22.73;;;16.75;;
18411;SDS011;27097;51.738;19.472;2023-06-22T02:08:15;22.13;;;15.90;;
18411;SDS011;27097;51.738;19.472;2023-06-22T02:10:46;22.80;;;16.45;;
18411;SDS011;27097;51.738;19.472;2023-06-22T02:13:14;21.98;;;15.32;;
18411;SDS011;27097;51.738;19.472;2023-06-22T02:15:42;20.08;;;15.10;;
18411;SDS011;27097;51.738;19.472;2023-06-22T02:18:11;22.83;;;15.38;;
18411;SDS011;27097;51.738;19.472;2023-06-22T02:20:39;21.13;;;15.18;;
18411;SDS011;27097;51.738;19.472;2023-06-22T02:23:06;21.00;;;14.85;;
18411;SDS011;27097;51.738;19.472;2023-06-22T02:25:33;23.42;;;15.35;;
18411;SDS011;27097;51.738;19.472;2023-06-22T02:28:01;25.08;;;15.60;;
18411;SDS011;27097;51.738;19.472;2023-06-22T02:30:27;23.02;;;14.98;;
18411;SDS011;27097;51.738;19.472;2023-06-22T02:32:54;21.45;;;14.07;;
18411;SDS011;27097;51.738;19.472;2023-06-22T02:35:26;21.02;;;15.05;;
18411;SDS011;27097;51.738;19.472;2023-06-22T02:37:56;20.17;;;14.60;;
18411;SDS011;27097;51.738;19.472;2023-06-22T02:40:23;22.52;;;14.00;;
18411;SDS011;27097;51.738;19.472;2023-06-22T02:42:50;22.25;;;14.70;;
18411;SDS011;27097;51.738;19.472;2023-06-22T02:45:17;20.30;;;14.27;;
18411;SDS011;27097;51.738;19.472;2023-06-22T02:47:44;20.77;;;13.90;;
18411;SDS011;27097;51.738;19.472;2023-06-22T02:50:10;22.08;;;14.40;;
18411;SDS011;27097;51.738;19.472;2023-06-22T02:52:39;19.92;;;13.65;;
18411;SDS011;27097;51.738;19.472;2023-06-22T02:55:06;22.48;;;13.93;;
18411;SDS011;27097;51.738;19.472;2023-06-22T02:57:33;22.13;;;14.68;;
18411;SDS011;27097;51.738;19.472;2023-06-22T03:00:02;20.70;;;14.27;;
18411;SDS011;27097;51.738;19.472;2023-06-22T03:02:40;20.45;;;14.35;;
18411;SDS011;27097;51.738;19.472;2023-06-22T03:05:07;21.27;;;14.50;;
18411;SDS011;27097;51.738;19.472;2023-06-22T03:07:40;21.98;;;14.27;;
18411;SDS011;27097;51.738;19.472;2023-06-22T03:10:08;19.17;;;13.43;;
18411;SDS011;27097;51.738;19.472;2023-06-22T03:12:35;19.27;;;13.00;;
18411;SDS011;27097;51.738;19.472;2023-06-22T03:15:02;19.00;;;13.32;;
18411;SDS011;27097;51.738;19.472;2023-06-22T03:17:30;18.50;;;13.80;;
18411;SDS011;27097;51.738;19.472;2023-06-22T03:19:57;21.75;;;14.57;;
18411;SDS011;27097;51.738;19.472;2023-06-22T03:22:24;20.83;;;14.00;;
18411;SDS011;27097;51.738;19.472;2023-06-22T03:24:52;20.38;;;14.23;;
18411;SDS011;27097;51.738;19.472;2023-06-22T03:27:19;19.65;;;13.40;;
18411;SDS011;27097;51.738;19.472;2023-06-22T03:29:46;20.33;;;12.88;;
18411;SDS011;27097;51.738;19.472;2023-06-22T03:32:13;18.75;;;13.68;;
18411;SDS011;27097;51.738;19.472;2023-06-22T03:34:40;19.08;;;13.70;;
18411;SDS011;27097;51.738;19.472;2023-06-22T03:37:12;17.65;;;12.70;;
18411;SDS011;27097;51.738;19.472;2023-06-22T03:39:39;17.90;;;12.75;;
18411;SDS011;27097;51.738;19.472;2023-06-22T03:42:07;17.83;;;12.77;;
18411;SDS011;27097;51.738;19.472;2023-06-22T03:44:34;23.10;;;13.18;;
18411;SDS011;27097;51.738;19.472;2023-06-22T03:47:01;17.45;;;12.50;;
18411;SDS011;27097;51.738;19.472;2023-06-22T03:49:28;16.30;;;11.52;;
18411;SDS011;27097;51.738;19.472;2023-06-22T03:51:55;16.83;;;11.77;;
18411;SDS011;27097;51.738;19.472;2023-06-22T03:54:22;16.13;;;11.77;;
18411;SDS011;27097;51.738;19.472;2023-06-22T03:56:49;15.55;;;11.45;;
18411;SDS011;27097;51.738;19.472;2023-06-22T03:59:17;18.85;;;11.13;;
18411;SDS011;27097;51.738;19.472;2023-06-22T04:01:44;15.13;;;11.27;;
18411;SDS011;27097;51.738;19.472;2023-06-22T04:04:11;17.25;;;10.85;;
18411;SDS011;27097;51.738;19.472;2023-06-22T04:06:38;14.90;;;10.88;;
18411;SDS011;27097;51.738;19.472;2023-06-22T04:09:05;16.55;;;10.40;;
18411;SDS011;27097;51.738;19.472;2023-06-22T04:11:32;17.55;;;10.52;;
18411;SDS011;27097;51.738;19.472;2023-06-22T04:13:59;17.00;;;10.23;;
18411;SDS011;27097;51.738;19.472;2023-06-22T04:16:27;14.07;;;10.05;;
18411;SDS011;27097;51.738;19.472;2023-06-22T04:18:54;13.70;;;9.68;;
18411;SDS011;27097;51.738;19.472;2023-06-22T04:21:21;15.20;;;9.75;;
18411;SDS011;27097;51.738;19.472;2023-06-22T04:23:48;15.35;;;10.10;;
18411;SDS011;27097;51.738;19.472;2023-06-22T04:26:15;13.88;;;9.52;;
18411;SDS011;27097;51.738;19.472;2023-06-22T04:28:42;12.93;;;9.02;;
18411;SDS011;27097;51.738;19.472;2023-06-22T04:31:15;14.43;;;10.05;;
18411;SDS011;27097;51.738;19.472;2023-06-22T04:33:43;13.88;;;8.93;;
18411;SDS011;27097;51.738;19.472;2023-06-22T04:36:10;11.70;;;8.45;;
18411;SDS011;27097;51.738;19.472;2023-06-22T04:38:38;13.70;;;8.48;;
18411;SDS011;27097;51.738;19.472;2023-06-22T04:41:05;12.98;;;8.20;;
18411;SDS011;27097;51.738;19.472;2023-06-22T04:43:34;13.68;;;8.43;;
18411;SDS011;27097;51.738;19.472;2023-06-22T04:46:01;12.20;;;8.32;;
18411;SDS011;27097;51.738;19.472;2023-06-22T04:48:29;11.43;;;8.00;;
18411;SDS011;27097;51.738;19.472;2023-06-22T04:50:59;13.05;;;8.18;;
18411;SDS011;27097;51.738;19.472;2023-06-22T04:53:28;11.90;;;7.65;;
18411;SDS011;27097;51.738;19.472;2023-06-22T04:55:55;14.05;;;7.47;;
18411;SDS011;27097;51.738;19.472;2023-06-22T04:58:22;9.90;;;7.47;;
18411;SDS011;27097;51.738;19.472;2023-06-22T05:00:52;11.40;;;6.97;;
18411;SDS011;27097;51.738;19.472;2023-06-22T05:03:24;8.98;;;6.38;;
18411;SDS011;27097;51.738;19.472;2023-06-22T05:05:52;9.93;;;6.75;;
18411;SDS011;27097;51.738;19.472;2023-06-22T05:08:20;8.85;;;6.78;;
18411;SDS011;27097;51.738;19.472;2023-06-22T05:10:51;10.50;;;6.15;;
18411;SDS011;27097;51.738;19.472;2023-06-22T05:13:18;10.68;;;6.65;;
18411;SDS011;27097;51.738;19.472;2023-06-22T05:15:46;12.68;;;6.93;;
18411;SDS011;27097;51.738;19.472;2023-06-22T05:18:13;8.75;;;6.40;;
18411;SDS011;27097;51.738;19.472;2023-06-22T05:20:40;12.55;;;6.60;;
18411;SDS011;27097;51.738;19.472;2023-06-22T05:23:07;10.02;;;6.30;;
18411;SDS011;27097;51.738;19.472;2023-06-22T05:25:35;10.25;;;6.43;;
18411;SDS011;27097;51.738;19.472;2023-06-22T05:28:02;8.38;;;6.50;;
18411;SDS011;27097;51.738;19.472;2023-06-22T05:30:36;10.02;;;6.45;;
18411;SDS011;27097;51.738;19.472;2023-06-22T05:33:03;7.85;;;6.15;;
18411;SDS011;27097;51.738;19.472;2023-06-22T05:35:30;10.13;;;5.75;;
18411;SDS011;27097;51.738;19.472;2023-06-22T05:37:57;9.68;;;6.20;;
18411;SDS011;27097;51.738;19.472;2023-06-22T05:40:24;8.15;;;5.78;;
18411;SDS011;27097;51.738;19.472;2023-06-22T05:42:53;7.80;;;6.00;;
18411;SDS011;27097;51.738;19.472;2023-06-22T05:45:20;9.90;;;5.47;;
18411;SDS011;27097;51.738;19.472;2023-06-22T05:47:47;10.75;;;6.25;;
18411;SDS011;27097;51.738;19.472;2023-06-22T05:50:13;9.10;;;5.70;;
18411;SDS011;27097;51.738;19.472;2023-06-22T05:52:40;9.25;;;6.07;;
18411;SDS011;27097;51.738;19.472;2023-06-22T05:55:08;7.53;;;5.10;;
18411;SDS011;27097;51.738;19.472;2023-06-22T05:57:35;7.20;;;4.65;;
18411;SDS011;27097;51.738;19.472;2023-06-22T06:00:03;10.23;;;5.38;;
18411;SDS011;27097;51.738;19.472;2023-06-22T06:02:35;10.02;;;5.93;;
18411;SDS011;27097;51.738;19.472;2023-06-22T06:05:02;10.40;;;6.07;;
18411;SDS011;27097;51.738;19.472;2023-06-22T06:07:29;8.60;;;5.57;;
18411;SDS011;27097;51.738;19.472;2023-06-22T06:09:59;9.68;;;6.38;;
18411;SDS011;27097;51.738;19.472;2023-06-22T06:12:26;7.50;;;5.45;;
18411;SDS011;27097;51.738;19.472;2023-06-22T06:14:52;13.13;;;6.35;;
18411;SDS011;27097;51.738;19.472;2023-06-22T06:17:22;12.68;;;6.25;;
18411;SDS011;27097;51.738;19.472;2023-06-22T06:19:49;9.00;;;5.47;;
18411;SDS011;27097;51.738;19.472;2023-06-22T06:22:16;10.55;;;6.50;;
18411;SDS011;27097;51.738;19.472;2023-06-22T06:24:43;14.18;;;5.97;;
18411;SDS011;27097;51.738;19.472;2023-06-22T06:27:10;11.38;;;5.65;;
18411;SDS011;27097;51.738;19.472;2023-06-22T06:29:37;11.20;;;5.53;;
18411;SDS011;27097;51.738;19.472;2023-06-22T06:32:04;11.38;;;5.65;;
18411;SDS011;27097;51.738;19.472;2023-06-22T06:34:32;9.48;;;5.35;;
18411;SDS011;27097;51.738;19.472;2023-06-22T06:36:59;8.80;;;5.35;;
18411;SDS011;27097;51.738;19.472;2023-06-22T06:39:26;8.60;;;5.20;;
18411;SDS011;27097;51.738;19.472;2023-06-22T06:41:53;8.95;;;5.32;;
18411;SDS011;27097;51.738;19.472;2023-06-22T06:44:20;7.25;;;5.10;;
18411;SDS011;27097;51.738;19.472;2023-06-22T06:46:46;9.70;;;4.72;;
18411;SDS011;27097;51.738;19.472;2023-06-22T06:49:13;8.27;;;5.50;;
18411;SDS011;27097;51.738;19.472;2023-06-22T06:51:41;8.27;;;4.43;;
18411;SDS011;27097;51.738;19.472;2023-06-22T06:54:08;8.30;;;5.40;;
18411;SDS011;27097;51.738;19.472;2023-06-22T06:56:35;8.32;;;4.75;;
18411;SDS011;27097;51.738;19.472;2023-06-22T06:59:02;10.10;;;4.80;;
18411;SDS011;27097;51.738;19.472;2023-06-22T07:01:29;11.77;;;5.47;;
18411;SDS011;27097;51.738;19.472;2023-06-22T07:03:58;10.27;;;5.18;;
18411;SDS011;27097;51.738;19.472;2023-06-22T07:06:25;9.07;;;4.90;;
18411;SDS011;27097;51.738;19.472;2023-06-22T07:08:58;7.70;;;4.80;;
18411;SDS011;27097;51.738;19.472;2023-06-22T07:11:25;12.55;;;4.63;;
18411;SDS011;27097;51.738;19.472;2023-06-22T07:13:52;9.40;;;4.70;;
18411;SDS011;27097;51.738;19.472;2023-06-22T07:16:19;10.05;;;4.82;;
18411;SDS011;27097;51.738;19.472;2023-06-22T07:18:46;11.13;;;5.07;;
18411;SDS011;27097;51.738;19.472;2023-06-22T07:21:13;10.20;;;4.25;;
18411;SDS011;27097;51.738;19.472;2023-06-22T07:23:39;9.77;;;4.80;;
18411;SDS011;27097;51.738;19.472;2023-06-22T07:26:08;10.18;;;4.72;;
18411;SDS011;27097;51.738;19.472;2023-06-22T07:28:34;8.93;;;4.68;;
18411;SDS011;27097;51.738;19.472;2023-06-22T07:31:03;7.70;;;4.22;;
18411;SDS011;27097;51.738;19.472;2023-06-22T07:33:30;8.73;;;4.32;;
18411;SDS011;27097;51.738;19.472;2023-06-22T07:35:56;10.57;;;4.32;;
18411;SDS011;27097;51.738;19.472;2023-06-22T07:38:23;6.47;;;4.40;;
18411;SDS011;27097;51.738;19.472;2023-06-22T07:40:50;9.07;;;4.70;;
18411;SDS011;27097;51.738;19.472;2023-06-22T07:43:19;8.55;;;4.80;;
18411;SDS011;27097;51.738;19.472;2023-06-22T07:45:48;6.10;;;4.28;;
18411;SDS011;27097;51.738;19.472;2023-06-22T07:48:17;5.90;;;4.70;;
18411;SDS011;27097;51.738;19.472;2023-06-22T07:50:46;8.23;;;3.90;;
18411;SDS011;27097;51.738;19.472;2023-06-22T07:53:13;8.48;;;4.07;;
18411;SDS011;27097;51.738;19.472;2023-06-22T07:55:39;11.27;;;4.28;;
18411;SDS011;27097;51.738;19.472;2023-06-22T07:58:08;7.32;;;4.10;;
18411;SDS011;27097;51.738;19.472;2023-06-22T08:00:36;7.45;;;4.22;;
18411;SDS011;27097;51.738;19.472;2023-06-22T08:03:03;6.70;;;4.10;;
18411;SDS011;27097;51.738;19.472;2023-06-22T08:05:31;10.50;;;3.65;;
18411;SDS011;27097;51.738;19.472;2023-06-22T08:07:58;6.28;;;4.00;;
18411;SDS011;27097;51.738;19.472;2023-06-22T08:10:24;6.63;;;3.47;;
18411;SDS011;27097;51.738;19.472;2023-06-22T08:12:52;8.00;;;3.58;;
18411;SDS011;27097;51.738;19.472;2023-06-22T08:15:18;8.48;;;3.70;;
18411;SDS011;27097;51.738;19.472;2023-06-22T08:17:48;8.23;;;3.80;;
18411;SDS011;27097;51.738;19.472;2023-06-22T08:20:15;5.30;;;3.55;;
18411;SDS011;27097;51.738;19.472;2023-06-22T08:22:42;5.60;;;3.42;;
18411;SDS011;27097;51.738;19.472;2023-06-22T08:25:10;5.72;;;3.40;;
18411;SDS011;27097;51.738;19.472;2023-06-22T08:27:38;6.72;;;3.60;;
18411;SDS011;27097;51.738;19.472;2023-06-22T08:30:05;5.60;;;3.70;;
18411;SDS011;27097;51.738;19.472;2023-06-22T08:32:33;5.70;;;3.60;;
18411;SDS011;27097;51.738;19.472;2023-06-22T08:35:01;7.40;;;3.65;;
18411;SDS011;27097;51.738;19.472;2023-06-22T08:37:28;5.85;;;3.67;;
18411;SDS011;27097;51.738;19.472;2023-06-22T08:39:56;5.28;;;3.80;;
18411;SDS011;27097;51.738;19.472;2023-06-22T08:42:23;12.88;;;4.20;;
18411;SDS011;27097;51.738;19.472;2023-06-22T08:44:50;5.78;;;3.58;;
18411;SDS011;27097;51.738;19.472;2023-06-22T08:47:18;5.05;;;3.78;;
18411;SDS011;27097;51.738;19.472;2023-06-22T08:49:45;8.43;;;3.85;;
18411;SDS011;27097;51.738;19.472;2023-06-22T08:52:13;4.68;;;3.70;;
18411;SDS011;27097;51.738;19.472;2023-06-22T08:54:40;5.72;;;3.80;;
18411;SDS011;27097;51.738;19.472;2023-06-22T08:57:07;5.40;;;4.10;;
18411;SDS011;27097;51.738;19.472;2023-06-22T08:59:37;5.32;;;3.80;;
18411;SDS011;27097;51.738;19.472;2023-06-22T09:02:05;4.53;;;3.58;;
18411;SDS011;27097;51.738;19.472;2023-06-22T09:04:32;4.53;;;3.58;;
18411;SDS011;27097;51.738;19.472;2023-06-22T09:07:00;4.15;;;3.60;;
18411;SDS011;27097;51.738;19.472;2023-06-22T09:09:28;6.05;;;3.80;;
18411;SDS011;27097;51.738;19.472;2023-06-22T09:11:55;4.95;;;3.53;;
18411;SDS011;27097;51.738;19.472;2023-06-22T09:14:22;7.15;;;3.67;;
18411;SDS011;27097;51.738;19.472;2023-06-22T09:16:48;8.00;;;3.38;;
18411;SDS011;27097;51.738;19.472;2023-06-22T09:19:15;5.10;;;3.05;;
18411;SDS011;27097;51.738;19.472;2023-06-22T09:21:42;5.60;;;3.13;;
18411;SDS011;27097;51.738;19.472;2023-06-22T09:24:09;4.93;;;3.30;;
18411;SDS011;27097;51.738;19.472;2023-06-22T09:26:37;5.93;;;3.30;;
18411;SDS011;27097;51.738;19.472;2023-06-22T09:29:04;6.15;;;3.15;;
18411;SDS011;27097;51.738;19.472;2023-06-22T09:31:31;5.55;;;3.30;;
18411;SDS011;27097;51.738;19.472;2023-06-22T09:33:58;4.53;;;3.03;;
18411;SDS011;27097;51.738;19.472;2023-06-22T09:36:25;3.53;;;2.65;;
18411;SDS011;27097;51.738;19.472;2023-06-22T09:38:52;6.63;;;2.90;;
18411;SDS011;27097;51.738;19.472;2023-06-22T09:41:20;3.88;;;2.80;;
18411;SDS011;27097;51.738;19.472;2023-06-22T09:43:49;3.85;;;2.90;;
18411;SDS011;27097;51.738;19.472;2023-06-22T09:46:16;5.32;;;2.58;;
18411;SDS011;27097;51.738;19.472;2023-06-22T09:48:43;6.70;;;2.90;;
18411;SDS011;27097;51.738;19.472;2023-06-22T09:51:11;4.32;;;2.53;;
18411;SDS011;27097;51.738;19.472;2023-06-22T09:53:38;4.47;;;2.80;;
18411;SDS011;27097;51.738;19.472;2023-06-22T09:56:05;5.45;;;2.75;;
18411;SDS011;27097;51.738;19.472;2023-06-22T09:58:32;4.07;;;2.70;;
18411;SDS011;27097;51.738;19.472;2023-06-22T10:01:00;6.38;;;2.80;;
18411;SDS011;27097;51.738;19.472;2023-06-22T10:03:27;5.25;;;2.60;;
18411;SDS011;27097;51.738;19.472;2023-06-22T10:05:54;5.20;;;2.50;;
18411;SDS011;27097;51.738;19.472;2023-06-22T10:08:21;3.65;;;2.70;;
18411;SDS011;27097;51.738;19.472;2023-06-22T10:10:48;5.03;;;2.53;;
18411;SDS011;27097;51.738;19.472;2023-06-22T10:13:15;6.20;;;2.65;;
18411;SDS011;27097;51.738;19.472;2023-06-22T10:15:42;4.53;;;2.80;;
18411;SDS011;27097;51.738;19.472;2023-06-22T10:18:11;3.60;;;2.80;;
18411;SDS011;27097;51.738;19.472;2023-06-22T10:20:38;3.55;;;2.30;;
18411;SDS011;27097;51.738;19.472;2023-06-22T10:23:05;3.97;;;2.40;;
18411;SDS011;27097;51.738;19.472;2023-06-22T10:25:32;4.40;;;2.63;;
18411;SDS011;27097;51.738;19.472;2023-06-22T10:27:59;2.97;;;2.67;;
18411;SDS011;27097;51.738;19.472;2023-06-22T10:30:26;4.55;;;2.60;;
18411;SDS011;27097;51.738;19.472;2023-06-22T10:32:54;5.15;;;2.60;;
18411;SDS011;27097;51.738;19.472;2023-06-22T10:35:22;4.53;;;2.70;;
18411;SDS011;27097;51.738;19.472;2023-06-22T10:37:49;3.72;;;2.70;;
18411;SDS011;27097;51.738;19.472;2023-06-22T10:40:16;2.80;;;2.25;;
18411;SDS011;27097;51.738;19.472;2023-06-22T10:42:44;3.83;;;2.50;;
18411;SDS011;27097;51.738;19.472;2023-06-22T10:45:11;2.85;;;2.38;;
18411;SDS011;27097;51.738;19.472;2023-06-22T10:47:38;6.32;;;2.47;;
18411;SDS011;27097;51.738;19.472;2023-06-22T10:50:07;5.95;;;2.70;;
18411;SDS011;27097;51.738;19.472;2023-06-22T10:52:36;7.85;;;2.97;;
18411;SDS011;27097;51.738;19.472;2023-06-22T10:55:03;4.55;;;2.25;;
18411;SDS011;27097;51.738;19.472;2023-06-22T10:57:30;5.05;;;2.55;;
18411;SDS011;27097;51.738;19.472;2023-06-22T10:59:56;6.20;;;2.58;;
18411;SDS011;27097;51.738;19.472;2023-06-22T11:02:23;6.20;;;2.78;;
18411;SDS011;27097;51.738;19.472;2023-06-22T11:04:50;4.10;;;2.70;;
18411;SDS011;27097;51.738;19.472;2023-06-22T11:07:17;4.65;;;2.90;;
18411;SDS011;27097;51.738;19.472;2023-06-22T11:09:46;4.90;;;2.70;;
18411;SDS011;27097;51.738;19.472;2023-06-22T11:12:12;3.75;;;2.67;;
18411;SDS011;27097;51.738;19.472;2023-06-22T11:14:39;8.75;;;2.83;;
18411;SDS011;27097;51.738;19.472;2023-06-22T11:17:06;5.05;;;2.67;;
18411;SDS011;27097;51.738;19.472;2023-06-22T11:19:33;4.68;;;2.45;;
18411;SDS011;27097;51.738;19.472;2023-06-22T11:22:00;3.72;;;2.80;;
18411;SDS011;27097;51.738;19.472;2023-06-22T11:24:26;3.10;;;2.40;;
18411;SDS011;27097;51.738;19.472;2023-06-22T11:26:55;3.40;;;2.33;;
18411;SDS011;27097;51.738;19.472;2023-06-22T11:29:22;4.53;;;2.70;;
18411;SDS011;27097;51.738;19.472;2023-06-22T11:31:50;4.50;;;2.72;;
18411;SDS011;27097;51.738;19.472;2023-06-22T11:34:17;4.80;;;2.35;;
18411;SDS011;27097;51.738;19.472;2023-06-22T11:36:44;4.90;;;2.60;;
18411;SDS011;27097;51.738;19.472;2023-06-22T11:39:12;5.65;;;2.85;;
18411;SDS011;27097;51.738;19.472;2023-06-22T11:41:40;7.88;;;2.97;;
18411;SDS011;27097;51.738;19.472;2023-06-22T11:44:08;9.45;;;2.40;;
18411;SDS011;27097;51.738;19.472;2023-06-22T11:46:35;6.20;;;2.38;;
18411;SDS011;27097;51.738;19.472;2023-06-22T11:49:02;3.10;;;2.22;;
18411;SDS011;27097;51.738;19.472;2023-06-22T11:51:29;4.10;;;2.60;;
18411;SDS011;27097;51.738;19.472;2023-06-22T11:53:56;3.90;;;2.38;;
18411;SDS011;27097;51.738;19.472;2023-06-22T11:56:23;3.60;;;2.42;;
18411;SDS011;27097;51.738;19.472;2023-06-22T11:58:50;6.70;;;2.72;;
18411;SDS011;27097;51.738;19.472;2023-06-22T12:01:20;5.85;;;2.25;;
18411;SDS011;27097;51.738;19.472;2023-06-22T12:03:47;7.82;;;2.80;;
18411;SDS011;27097;51.738;19.472;2023-06-22T12:06:14;3.85;;;2.30;;
18411;SDS011;27097;51.738;19.472;2023-06-22T12:08:41;8.70;;;2.30;;
18411;SDS011;27097;51.738;19.472;2023-06-22T12:11:07;7.28;;;2.58;;
18411;SDS011;27097;51.738;19.472;2023-06-22T12:13:34;5.47;;;2.45;;
18411;SDS011;27097;51.738;19.472;2023-06-22T12:16:01;3.45;;;2.35;;
18411;SDS011;27097;51.738;19.472;2023-06-22T12:18:29;6.55;;;2.72;;
18411;SDS011;27097;51.738;19.472;2023-06-22T12:20:56;2.90;;;2.25;;
18411;SDS011;27097;51.738;19.472;2023-06-22T12:23:23;3.53;;;2.65;;
18411;SDS011;27097;51.738;19.472;2023-06-22T12:25:50;4.10;;;2.35;;
18411;SDS011;27097;51.738;19.472;2023-06-22T12:28:17;3.67;;;2.97;;
18411;SDS011;27097;51.738;19.472;2023-06-22T12:30:44;6.50;;;2.53;;
18411;SDS011;27097;51.738;19.472;2023-06-22T12:33:11;7.07;;;2.65;;
18411;SDS011;27097;51.738;19.472;2023-06-22T12:35:40;4.05;;;2.75;;
18411;SDS011;27097;51.738;19.472;2023-06-22T12:38:07;4.65;;;2.85;;
18411;SDS011;27097;51.738;19.472;2023-06-22T12:40:34;5.78;;;2.65;;
18411;SDS011;27097;51.738;19.472;2023-06-22T12:43:01;4.25;;;2.70;;
18411;SDS011;27097;51.738;19.472;2023-06-22T12:45:28;3.03;;;2.70;;
18411;SDS011;27097;51.738;19.472;2023-06-22T12:47:58;7.53;;;2.38;;
18411;SDS011;27097;51.738;19.472;2023-06-22T12:50:25;7.38;;;2.97;;
18411;SDS011;27097;51.738;19.472;2023-06-22T12:52:54;8.15;;;2.40;;
18411;SDS011;27097;51.738;19.472;2023-06-22T12:55:21;3.70;;;2.40;;
18411;SDS011;27097;51.738;19.472;2023-06-22T12:57:47;4.05;;;2.58;;
18411;SDS011;27097;51.738;19.472;2023-06-22T13:00:15;7.38;;;2.83;;
18411;SDS011;27097;51.738;19.472;2023-06-22T13:02:42;5.28;;;2.50;;
18411;SDS011;27097;51.738;19.472;2023-06-22T13:05:09;6.78;;;2.55;;
18411;SDS011;27097;51.738;19.472;2023-06-22T13:07:37;4.18;;;2.40;;
18411;SDS011;27097;51.738;19.472;2023-06-22T13:10:13;5.03;;;2.50;;
18411;SDS011;27097;51.738;19.472;2023-06-22T13:12:46;5.13;;;2.35;;
18411;SDS011;27097;51.738;19.472;2023-06-22T13:15:16;13.80;;;2.70;;
18411;SDS011;27097;51.738;19.472;2023-06-22T13:17:46;7.53;;;2.85;;
18411;SDS011;27097;51.738;19.472;2023-06-22T13:20:13;4.85;;;2.35;;
18411;SDS011;27097;51.738;19.472;2023-06-22T13:22:40;5.85;;;2.08;;
18411;SDS011;27097;51.738;19.472;2023-06-22T13:25:10;4.57;;;2.35;;
18411;SDS011;27097;51.738;19.472;2023-06-22T13:27:38;14.20;;;2.55;;
18411;SDS011;27097;51.738;19.472;2023-06-22T13:30:05;14.70;;;3.22;;
18411;SDS011;27097;51.738;19.472;2023-06-22T13:32:34;7.50;;;2.40;;
18411;SDS011;27097;51.738;19.472;2023-06-22T13:35:04;3.85;;;2.38;;
18411;SDS011;27097;51.738;19.472;2023-06-22T13:37:31;7.18;;;2.50;;
18411;SDS011;27097;51.738;19.472;2023-06-22T13:39:58;15.85;;;2.58;;
18411;SDS011;27097;51.738;19.472;2023-06-22T13:42:26;9.65;;;2.35;;
18411;SDS011;27097;51.738;19.472;2023-06-22T13:44:53;6.97;;;2.03;;
18411;SDS011;27097;51.738;19.472;2023-06-22T13:47:20;5.75;;;2.20;;
18411;SDS011;27097;51.738;19.472;2023-06-22T13:49:47;11.15;;;2.08;;
18411;SDS011;27097;51.738;19.472;2023-06-22T13:52:14;10.65;;;2.63;;
18411;SDS011;27097;51.738;19.472;2023-06-22T13:54:41;7.03;;;2.30;;
18411;SDS011;27097;51.738;19.472;2023-06-22T13:57:07;6.00;;;2.13;;
18411;SDS011;27097;51.738;19.472;2023-06-22T13:59:36;3.08;;;2.15;;
18411;SDS011;27097;51.738;19.472;2023-06-22T14:02:03;5.32;;;2.25;;
18411;SDS011;27097;51.738;19.472;2023-06-22T14:04:30;13.27;;;2.30;;
18411;SDS011;27097;51.738;19.472;2023-06-22T14:06:57;11.82;;;2.55;;
18411;SDS011;27097;51.738;19.472;2023-06-22T14:09:23;9.02;;;2.25;;
18411;SDS011;27097;51.738;19.472;2023-06-22T14:11:50;9.95;;;2.13;;
18411;SDS011;27097;51.738;19.472;2023-06-22T14:14:17;10.48;;;2.50;;
18411;SDS011;27097;51.738;19.472;2023-06-22T14:16:45;4.82;;;1.92;;
18411;SDS011;27097;51.738;19.472;2023-06-22T14:19:14;13.20;;;2.42;;
18411;SDS011;27097;51.738;19.472;2023-06-22T14:21:41;7.18;;;2.30;;
18411;SDS011;27097;51.738;19.472;2023-06-22T14:24:08;7.90;;;2.40;;
18411;SDS011;27097;51.738;19.472;2023-06-22T14:26:34;15.02;;;2.42;;